createdAt,value
2022-12-03T00:00:48.450Z,88.78
2022-12-03T00:03:15.577Z,88.58
2022-12-03T00:05:48.906Z,88.32
2022-12-03T00:08:16.600Z,88.32
2022-12-03T00:10:45.088Z,88.04
2022-12-03T00:13:13.295Z,88.55
2022-12-03T00:15:40.301Z,88.72
2022-12-03T00:18:09.720Z,88.47
2022-12-03T00:20:36.677Z,88.42
2022-12-03T00:23:05.252Z,88.73
2022-12-03T00:25:33.284Z,88.66
2022-12-03T00:28:00.712Z,88.89
2022-12-03T00:30:29.248Z,88.71
2022-12-03T00:32:56.686Z,88.85
2022-12-03T00:35:24.091Z,89.06
2022-12-03T00:37:51.138Z,88.96
2022-12-03T00:40:18.466Z,88.94
2022-12-03T00:42:45.647Z,88.98
2022-12-03T00:45:13.075Z,89.06
2022-12-03T00:47:41.403Z,89.02
2022-12-03T00:50:10.259Z,89.18
2022-12-03T00:52:38.380Z,89.26
2022-12-03T00:55:06.127Z,89.58
2022-12-03T00:57:33.244Z,89.30
2022-12-03T01:00:07.431Z,88.84
2022-12-03T01:02:34.815Z,88.73
2022-12-03T01:05:06.282Z,88.63
2022-12-03T01:07:33.497Z,88.61
2022-12-03T01:10:00.843Z,88.55
2022-12-03T01:12:28.267Z,88.87
2022-12-03T01:14:55.952Z,89.10
2022-12-03T01:17:23.126Z,89.40
2022-12-03T01:19:52.776Z,89.37
2022-12-03T01:22:20.089Z,89.20
2022-12-03T01:24:54.101Z,88.89
2022-12-03T01:27:21.673Z,88.82
2022-12-03T01:29:48.640Z,89.12
2022-12-03T01:32:19.784Z,89.06
2022-12-03T01:34:49.996Z,89.12
2022-12-03T01:37:17.881Z,89.20
2022-12-03T01:39:45.203Z,89.46
2022-12-03T01:42:27.462Z,89.87
2022-12-03T01:44:57.851Z,89.99
2022-12-03T01:47:36.110Z,90.20
2022-12-03T01:50:15.815Z,90.36
2022-12-03T01:52:43.009Z,90.48
2022-12-03T01:55:20.858Z,90.90
2022-12-03T01:57:54.195Z,91.30
2022-12-03T02:00:27.100Z,91.30
2022-12-03T02:02:57.421Z,90.85
2022-12-03T02:05:27.653Z,90.42
2022-12-03T02:07:57.460Z,90.30
2022-12-03T02:10:36.339Z,90.39
2022-12-03T02:13:11.354Z,90.69
2022-12-03T02:15:40.229Z,90.82
2022-12-03T02:18:13.319Z,90.65
2022-12-03T02:21:12.141Z,90.20
2022-12-03T02:24:08.057Z,90.65
2022-12-03T02:26:36.314Z,90.47
2022-12-03T02:29:03.796Z,90.99
2022-12-03T02:31:32.306Z,91.13
2022-12-03T02:33:59.773Z,91.30
2022-12-03T02:36:28.229Z,90.72
2022-12-03T02:39:04.485Z,90.82
2022-12-03T02:41:50.354Z,90.96
2022-12-03T02:44:17.696Z,91.35
2022-12-03T02:46:48.706Z,91.55
2022-12-03T02:49:16.264Z,91.53
2022-12-03T02:51:43.644Z,91.86
2022-12-03T02:54:11.216Z,92.15
2022-12-03T02:56:40.689Z,92.39
2022-12-03T02:59:10.409Z,92.24
2022-12-03T03:01:38.575Z,92.44
2022-12-03T03:04:07.117Z,92.23
2022-12-03T03:06:34.783Z,92.50
2022-12-03T03:09:03.227Z,92.56
2022-12-03T03:11:30.629Z,92.73
2022-12-03T03:13:57.794Z,93.02
2022-12-03T03:16:24.805Z,93.27
2022-12-03T03:18:53.316Z,93.56
2022-12-03T03:21:22.817Z,93.52
2022-12-03T03:23:50.248Z,93.57
2022-12-03T03:26:17.936Z,93.34
2022-12-03T03:28:50.345Z,93.12
2022-12-03T03:31:23.068Z,92.96
2022-12-03T03:33:53.393Z,92.98
2022-12-03T03:36:23.350Z,92.66
2022-12-03T03:38:53.345Z,92.75
2022-12-03T03:41:21.892Z,92.44
2022-12-03T03:43:50.459Z,92.46
2022-12-03T03:46:19.326Z,92.33
2022-12-03T03:48:48.847Z,93.07
2022-12-03T03:51:18.862Z,93.10
2022-12-03T03:53:49.988Z,92.94
2022-12-03T03:56:21.776Z,93.45
2022-12-03T03:58:50.969Z,93.77
2022-12-03T04:01:18.664Z,94.05
2022-12-03T04:03:45.667Z,94.05
2022-12-03T04:06:12.912Z,93.88
2022-12-03T04:08:40.309Z,93.89
2022-12-03T04:11:26.252Z,93.55
2022-12-03T04:13:53.589Z,93.44
2022-12-03T04:16:21.633Z,93.86
2022-12-03T04:18:51.137Z,94.50
2022-12-03T04:21:42.392Z,94.37
2022-12-03T04:24:11.753Z,94.08
2022-12-03T04:26:57.472Z,94.29
2022-12-03T04:29:24.770Z,94.31
2022-12-03T04:32:11.410Z,94.47
2022-12-03T04:34:57.622Z,94.53
2022-12-03T04:37:25.757Z,94.17
2022-12-03T04:39:52.774Z,94.43
2022-12-03T04:42:20.167Z,94.74
2022-12-03T04:44:47.615Z,95.01
2022-12-03T04:47:21.026Z,95.45
2022-12-03T04:49:51.939Z,95.73
2022-12-03T04:52:25.330Z,95.68
2022-12-03T04:54:52.971Z,95.93
2022-12-03T04:57:20.215Z,96.22
2022-12-03T04:59:47.147Z,96.88
2022-12-03T05:02:16.187Z,96.78
2022-12-03T05:04:43.582Z,96.91
2022-12-03T05:07:12.670Z,96.96
2022-12-03T05:09:40.129Z,97.20
2022-12-03T05:12:07.691Z,97.65
2022-12-03T05:14:35.215Z,97.64
2022-12-03T05:17:02.414Z,97.79
2022-12-03T05:19:48.582Z,97.70
2022-12-03T05:22:16.772Z,97.41
2022-12-03T05:24:45.302Z,97.32
2022-12-03T05:27:12.753Z,96.95
2022-12-03T05:29:41.056Z,97.21
2022-12-03T05:32:10.197Z,97.26
2022-12-03T05:34:37.217Z,97.02
2022-12-03T05:37:05.336Z,97.31
2022-12-03T05:39:34.885Z,97.59
2022-12-03T05:42:20.462Z,97.63
2022-12-03T05:44:49.579Z,97.77
2022-12-03T05:47:16.680Z,97.74
2022-12-03T05:49:44.176Z,98.06
2022-12-03T05:52:11.468Z,97.84
2022-12-03T05:54:39.217Z,98.19
2022-12-03T05:57:08.366Z,98.53
2022-12-03T05:59:35.338Z,98.68
2022-12-03T06:02:04.979Z,99.00
2022-12-03T06:04:32.345Z,99.09
2022-12-03T06:06:59.425Z,99.33
2022-12-03T06:09:26.771Z,99.17
2022-12-03T06:11:54.473Z,99.30
2022-12-03T06:14:23.752Z,99.20
2022-12-03T06:16:51.216Z,99.31
2022-12-03T06:19:18.657Z,99.31
2022-12-03T06:21:46.177Z,99.17
2022-12-03T06:24:13.590Z,98.74
2022-12-03T06:26:40.736Z,98.66
2022-12-03T06:29:09.053Z,98.71
2022-12-03T06:31:36.156Z,98.81
2022-12-03T06:34:03.564Z,98.77
2022-12-03T06:36:31.089Z,98.73
2022-12-03T06:38:58.526Z,98.70
2022-12-03T06:41:25.916Z,98.38
2022-12-03T06:43:53.081Z,98.28
2022-12-03T06:46:20.352Z,98.00
2022-12-03T06:48:47.937Z,97.69
2022-12-03T06:51:17.394Z,97.08
2022-12-03T06:53:44.333Z,96.96
2022-12-03T06:56:11.751Z,97.22
2022-12-03T06:58:39.169Z,97.44
2022-12-03T07:01:06.593Z,98.20
2022-12-03T07:03:33.585Z,98.68
2022-12-03T07:06:01.341Z,99.15
2022-12-03T07:08:46.874Z,99.63
2022-12-03T07:11:32.664Z,99.35
2022-12-03T07:14:05.002Z,98.89
2022-12-03T07:16:34.973Z,98.65
2022-12-03T07:19:02.832Z,98.89
2022-12-03T07:21:30.933Z,98.85
2022-12-03T07:23:58.537Z,99.03
2022-12-03T07:26:26.078Z,99.25
2022-12-03T07:28:54.381Z,99.12
2022-12-03T07:31:21.849Z,99.41
2022-12-03T07:33:49.218Z,99.58
2022-12-03T07:36:17.417Z,99.73
2022-12-03T07:38:45.085Z,100.00
2022-12-03T07:41:12.171Z,100.00
2022-12-03T07:43:40.346Z,100.00
2022-12-03T07:46:08.743Z,100.00
2022-12-03T07:48:36.230Z,100.00
2022-12-03T07:51:03.915Z,100.00
2022-12-03T07:53:31.775Z,100.00
2022-12-03T07:55:59.137Z,100.00
2022-12-03T07:58:33.267Z,100.00
2022-12-03T08:01:01.868Z,100.00
2022-12-03T08:03:28.819Z,100.00
2022-12-03T08:05:57.222Z,100.00
2022-12-03T08:08:24.781Z,100.00
2022-12-03T08:10:52.158Z,100.00
2022-12-03T08:13:19.685Z,100.00
2022-12-03T08:15:47.561Z,100.00
2022-12-03T08:18:20.932Z,100.00
2022-12-03T08:20:49.031Z,100.00
2022-12-03T08:23:26.770Z,100.00
2022-12-03T08:25:54.804Z,100.00
2022-12-03T08:28:25.931Z,100.00
2022-12-03T08:31:32.703Z,100.00
2022-12-03T08:34:22.326Z,100.00
2022-12-03T08:37:06.713Z,100.00
2022-12-03T08:39:44.765Z,99.75
2022-12-03T08:42:46.744Z,99.41
2022-12-03T08:45:40.810Z,99.38
2022-12-03T08:48:34.208Z,99.43
2022-12-03T08:51:25.388Z,99.13
2022-12-03T08:54:13.038Z,98.62
2022-12-03T08:56:56.447Z,98.62
2022-12-03T08:59:26.012Z,98.38
2022-12-03T09:02:00.042Z,98.63
2022-12-03T09:04:32.384Z,98.92
2022-12-03T09:06:59.759Z,99.15
2022-12-03T09:09:27.196Z,99.43
2022-12-03T09:11:56.118Z,99.14
2022-12-03T09:14:24.051Z,98.56
2022-12-03T09:16:56.104Z,98.33
2022-12-03T09:19:25.570Z,98.08
2022-12-03T09:21:54.341Z,98.22
2022-12-03T09:24:21.606Z,97.61
2022-12-03T09:26:49.580Z,97.48
2022-12-03T09:29:16.971Z,97.43
2022-12-03T09:31:44.400Z,97.25
2022-12-03T09:34:11.849Z,97.75
2022-12-03T09:36:39.340Z,97.17
2022-12-03T09:39:06.838Z,97.20
2022-12-03T09:41:34.326Z,97.33
2022-12-03T09:44:04.431Z,97.65
2022-12-03T09:46:37.902Z,98.27
2022-12-03T09:49:13.946Z,97.26
2022-12-03T09:51:45.905Z,96.14
2022-12-03T09:54:23.077Z,96.16
2022-12-03T09:56:51.920Z,96.31
2022-12-03T09:59:23.126Z,96.30
2022-12-03T10:01:53.189Z,95.52
2022-12-03T10:04:20.931Z,94.80
2022-12-03T10:06:48.507Z,94.74
2022-12-03T10:09:22.756Z,94.31
2022-12-03T10:11:50.893Z,94.04
2022-12-03T10:14:20.341Z,94.36
2022-12-03T10:16:48.059Z,94.23
2022-12-03T10:19:27.993Z,94.07
2022-12-03T10:21:56.514Z,94.07
2022-12-03T10:24:29.083Z,93.94
2022-12-03T10:26:59.594Z,93.87
2022-12-03T10:29:34.211Z,94.22
2022-12-03T10:32:13.055Z,93.85
2022-12-03T10:34:42.513Z,93.08
2022-12-03T10:37:18.631Z,93.20
2022-12-03T10:40:11.001Z,93.77
2022-12-03T10:42:41.160Z,93.57
2022-12-03T10:45:15.108Z,93.11
2022-12-03T10:48:03.594Z,92.87
2022-12-03T10:50:49.564Z,93.39
2022-12-03T10:53:19.371Z,93.18
2022-12-03T10:55:48.445Z,93.22
2022-12-03T10:58:22.325Z,93.20
2022-12-03T11:00:52.059Z,92.73
2022-12-03T11:03:22.625Z,92.58
2022-12-03T11:05:51.147Z,92.86
2022-12-03T11:08:21.162Z,92.43
2022-12-03T11:11:07.560Z,92.52
2022-12-03T11:13:50.035Z,92.80
2022-12-03T11:16:40.460Z,93.17
2022-12-03T11:19:13.138Z,92.48
2022-12-03T11:22:05.516Z,92.36
2022-12-03T11:24:35.910Z,92.42
2022-12-03T11:27:09.272Z,92.15
2022-12-03T11:29:46.169Z,92.28
2022-12-03T11:32:39.174Z,91.71
2022-12-03T11:35:28.529Z,91.44
2022-12-03T11:38:15.736Z,91.35
2022-12-03T11:41:08.514Z,91.91
2022-12-03T11:43:56.905Z,92.11
2022-12-03T11:46:38.142Z,92.67
2022-12-03T11:49:21.167Z,92.89
2022-12-03T11:51:58.946Z,92.92
2022-12-03T11:54:26.544Z,92.09
2022-12-03T11:56:56.367Z,92.16
2022-12-03T11:59:24.562Z,92.77
2022-12-03T12:01:51.511Z,93.25
2022-12-03T12:04:43.179Z,93.62
2022-12-03T12:07:12.090Z,93.89
2022-12-03T12:09:54.311Z,94.14
2022-12-03T12:12:38.589Z,93.97
2022-12-03T12:15:53.880Z,94.15
2022-12-03T12:18:39.647Z,93.96
2022-12-03T12:21:48.031Z,93.95
2022-12-03T12:24:54.025Z,94.33
2022-12-03T12:27:35.994Z,94.01
2022-12-03T12:30:13.996Z,94.11
2022-12-03T12:32:52.253Z,94.36
2022-12-03T12:35:24.546Z,94.25
2022-12-03T12:38:07.784Z,94.23
2022-12-03T12:40:37.726Z,94.54
2022-12-03T12:43:29.885Z,94.79
2022-12-03T12:46:38.633Z,94.80
2022-12-03T12:48:59.342Z,94.69
2022-12-03T12:51:43.776Z,94.17
2022-12-03T12:54:13.431Z,94.28
2022-12-03T12:56:44.485Z,94.33
2022-12-03T12:59:14.602Z,94.11
2022-12-03T13:01:44.393Z,94.29
2022-12-03T13:04:13.975Z,94.22
2022-12-03T13:06:41.575Z,94.15
2022-12-03T13:09:20.880Z,93.86
2022-12-03T13:12:01.539Z,94.10
2022-12-03T13:14:35.366Z,94.12
2022-12-03T13:17:14.294Z,93.93
2022-12-03T13:19:48.264Z,94.23
2022-12-03T13:22:25.791Z,94.24
2022-12-03T13:24:56.212Z,94.30
2022-12-03T13:27:29.857Z,94.56
2022-12-03T13:30:09.541Z,94.11
2022-12-03T13:32:42.698Z,94.06
2022-12-03T13:35:32.054Z,94.36
2022-12-03T13:37:59.625Z,94.96
2022-12-03T13:40:35.297Z,95.26
2022-12-03T13:43:20.329Z,95.23
2022-12-03T13:45:50.558Z,95.23
2022-12-03T13:48:45.521Z,95.40
2022-12-03T13:51:26.252Z,95.60
2022-12-03T13:53:54.587Z,95.50
2022-12-03T13:56:32.560Z,95.59
2022-12-03T13:59:01.889Z,95.48
2022-12-03T14:01:30.648Z,95.53
2022-12-03T14:03:57.728Z,95.93
2022-12-03T14:06:25.942Z,96.07
2022-12-03T14:08:53.218Z,95.97
2022-12-03T14:11:39.108Z,95.76
2022-12-03T14:14:06.515Z,95.67
2022-12-03T14:16:36.139Z,95.64
2022-12-03T14:19:03.693Z,95.86
2022-12-03T14:21:31.027Z,95.93
2022-12-03T14:23:58.409Z,95.90
2022-12-03T14:26:26.774Z,95.85
2022-12-03T14:28:53.850Z,96.04
2022-12-03T14:31:21.406Z,95.35
2022-12-03T14:33:48.732Z,95.00
2022-12-03T14:36:17.450Z,95.22
2022-12-03T14:38:44.717Z,95.61
2022-12-03T14:41:32.098Z,95.53
2022-12-03T14:44:01.101Z,95.06
2022-12-03T14:46:30.670Z,94.33
2022-12-03T14:48:59.122Z,94.48
2022-12-03T14:51:26.603Z,93.93
2022-12-03T14:53:53.997Z,94.25
2022-12-03T14:56:21.897Z,94.44
2022-12-03T14:58:48.894Z,94.08
2022-12-03T15:01:16.925Z,93.43
2022-12-03T15:03:43.929Z,93.17
2022-12-03T15:06:11.311Z,93.23
2022-12-03T15:08:38.720Z,93.11
2022-12-03T15:11:07.303Z,93.53
2022-12-03T15:13:34.696Z,94.04
2022-12-03T15:16:02.218Z,93.74
2022-12-03T15:18:31.283Z,94.02
2022-12-03T15:20:58.608Z,94.63
2022-12-03T15:23:26.029Z,94.38
2022-12-03T15:25:53.113Z,93.99
2022-12-03T15:28:22.139Z,93.61
2022-12-03T15:30:50.669Z,93.56
2022-12-03T15:33:18.899Z,93.53
2022-12-03T15:35:45.897Z,93.59
2022-12-03T15:38:13.580Z,93.31
2022-12-03T15:40:47.556Z,93.90
2022-12-03T15:43:14.948Z,94.15
2022-12-03T15:45:43.448Z,93.89
2022-12-03T15:48:11.240Z,93.62
2022-12-03T15:50:40.298Z,93.90
2022-12-03T15:53:08.916Z,94.34
2022-12-03T15:55:37.321Z,94.35
2022-12-03T15:58:04.723Z,94.35
2022-12-03T16:00:39.402Z,94.73
2022-12-03T16:03:06.905Z,94.37
2022-12-03T16:05:34.618Z,94.16
2022-12-03T16:08:02.929Z,93.83
2022-12-03T16:10:30.267Z,93.96
2022-12-03T16:12:59.519Z,94.52
2022-12-03T16:15:27.585Z,94.90
2022-12-03T16:17:54.879Z,95.35
2022-12-03T16:20:22.161Z,96.01
2022-12-03T16:22:51.400Z,96.69
2022-12-03T16:25:19.728Z,96.85
2022-12-03T16:27:47.593Z,96.88
2022-12-03T16:30:15.568Z,96.85
2022-12-03T16:32:42.654Z,97.10
2022-12-03T16:35:10.401Z,96.78
2022-12-03T16:37:40.055Z,96.48
2022-12-03T16:40:08.148Z,96.29
2022-12-03T16:42:37.537Z,96.11
2022-12-03T16:45:08.409Z,95.87
2022-12-03T16:47:36.364Z,95.61
2022-12-03T16:50:09.867Z,95.90
2022-12-03T16:52:40.225Z,95.70
2022-12-03T16:55:08.250Z,95.46
2022-12-03T16:57:35.928Z,95.29
2022-12-03T17:00:03.886Z,95.31
2022-12-03T17:02:31.073Z,95.19
2022-12-03T17:04:58.562Z,95.40
2022-12-03T17:07:26.266Z,95.46
2022-12-03T17:09:55.701Z,95.47
2022-12-03T17:12:23.048Z,95.55
2022-12-03T17:14:50.297Z,95.76
2022-12-03T17:17:18.368Z,95.46
2022-12-03T17:19:45.305Z,95.34
2022-12-03T17:22:12.192Z,95.36
2022-12-03T17:24:39.173Z,95.26
2022-12-03T17:27:08.129Z,95.51
2022-12-03T17:29:35.072Z,95.72
2022-12-03T17:32:02.150Z,96.17
2022-12-03T17:34:29.751Z,96.64
2022-12-03T17:36:56.967Z,97.13
2022-12-03T17:39:24.021Z,97.12
2022-12-03T17:41:51.357Z,96.77
2022-12-03T17:44:21.198Z,96.52
2022-12-03T17:46:50.009Z,96.53
2022-12-03T17:49:17.724Z,96.75
2022-12-03T17:51:44.775Z,96.91
2022-12-03T17:54:13.109Z,96.75
2022-12-03T17:56:43.829Z,96.29
2022-12-03T17:59:12.145Z,96.23
2022-12-03T18:01:39.793Z,96.66
2022-12-03T18:04:07.727Z,97.07
2022-12-03T18:06:34.765Z,96.79
2022-12-03T18:09:03.087Z,97.13
2022-12-03T18:11:30.818Z,97.44
2022-12-03T18:13:58.768Z,97.70
2022-12-03T18:16:26.280Z,97.20
2022-12-03T18:18:56.691Z,97.04
2022-12-03T18:21:26.905Z,96.96
2022-12-03T18:23:56.429Z,96.58
2022-12-03T18:26:23.440Z,96.84
2022-12-03T18:28:56.770Z,96.92
2022-12-03T18:31:24.365Z,97.10
2022-12-03T18:33:52.047Z,97.42
2022-12-03T18:36:22.996Z,97.37
2022-12-03T18:38:55.767Z,97.40
2022-12-03T18:41:24.406Z,97.55
2022-12-03T18:43:53.745Z,97.61
2022-12-03T18:49:10.609Z,97.76
2022-12-03T18:51:38.364Z,97.58
2022-12-03T18:54:12.720Z,97.55
2022-12-03T18:56:41.427Z,97.93
2022-12-03T18:59:15.065Z,97.80
2022-12-03T19:01:43.357Z,97.99
2022-12-03T19:04:11.540Z,97.90
2022-12-03T19:06:41.082Z,97.79
2022-12-03T19:09:09.693Z,97.93
2022-12-03T19:11:37.072Z,97.66
2022-12-03T19:14:04.488Z,97.62
2022-12-03T19:16:33.296Z,98.19
2022-12-03T19:19:02.482Z,98.03
2022-12-03T19:21:33.687Z,98.12
2022-12-03T19:24:23.800Z,97.96
2022-12-03T19:26:55.745Z,98.12
2022-12-03T19:29:24.087Z,97.72
2022-12-03T19:31:52.187Z,97.64
2022-12-03T19:34:20.415Z,97.73
2022-12-03T19:36:49.028Z,98.16
2022-12-03T19:39:16.403Z,98.59
2022-12-03T19:41:47.723Z,98.57
2022-12-03T19:44:17.617Z,98.64
2022-12-03T19:46:45.785Z,98.41
2022-12-03T19:49:21.532Z,98.57
2022-12-03T19:51:49.287Z,98.88
2022-12-03T19:54:17.966Z,99.09
2022-12-03T19:56:45.406Z,99.08
2022-12-03T19:59:14.592Z,99.03
2022-12-03T20:01:43.727Z,99.13
2022-12-03T20:04:13.367Z,99.23
2022-12-03T20:06:41.077Z,99.18
2022-12-03T20:09:14.078Z,99.21
2022-12-03T20:11:44.809Z,99.15
2022-12-03T20:14:15.645Z,99.00
2022-12-03T20:16:48.022Z,99.01
2022-12-03T20:19:18.278Z,99.24
2022-12-03T20:21:47.264Z,99.15
2022-12-03T20:24:17.569Z,99.23
2022-12-03T20:26:45.260Z,99.27
2022-12-03T20:29:13.256Z,99.94
2022-12-03T20:31:41.176Z,99.81
2022-12-03T20:34:10.672Z,100.00
2022-12-03T20:36:38.620Z,100.00
2022-12-03T20:39:08.017Z,99.88
2022-12-03T20:41:37.156Z,100.00
2022-12-03T20:44:06.879Z,100.00
2022-12-03T20:46:34.752Z,100.00
2022-12-03T20:49:05.664Z,100.00
2022-12-03T20:51:34.308Z,100.00
2022-12-03T20:54:02.348Z,100.00
2022-12-03T20:56:32.695Z,100.00
2022-12-03T20:59:13.685Z,99.44
2022-12-03T21:01:41.851Z,99.87
2022-12-03T21:04:10.371Z,99.62
2022-12-03T21:06:38.230Z,99.37
2022-12-03T21:09:09.330Z,99.15
2022-12-03T21:11:39.551Z,99.21
2022-12-03T21:14:07.496Z,99.49
2022-12-03T21:17:10.339Z,99.51
2022-12-03T21:19:29.497Z,99.37
2022-12-03T21:21:57.056Z,99.63
2022-12-03T21:24:24.464Z,99.69
2022-12-03T21:26:51.854Z,99.86
2022-12-03T21:29:19.348Z,99.62
2022-12-03T21:31:47.278Z,99.90
2022-12-03T21:34:14.903Z,100.00
2022-12-03T21:36:42.283Z,100.00
2022-12-03T21:39:10.379Z,100.00
2022-12-03T21:41:37.579Z,100.00
2022-12-03T21:44:05.217Z,100.00
2022-12-03T21:47:11.972Z,100.00
2022-12-03T21:49:33.111Z,100.00
2022-12-03T21:52:00.181Z,100.00
2022-12-03T21:54:28.556Z,100.00
2022-12-03T21:56:55.940Z,100.00
2022-12-03T21:59:23.116Z,100.00
2022-12-03T22:01:50.542Z,100.00
2022-12-03T22:04:18.194Z,100.00
2022-12-03T22:06:45.831Z,100.00
2022-12-03T22:09:13.897Z,100.00
2022-12-03T22:11:41.225Z,100.00
2022-12-03T22:14:10.069Z,100.00
2022-12-03T22:16:37.296Z,100.00
2022-12-03T22:19:04.831Z,100.00
2022-12-03T22:21:35.896Z,100.00
2022-12-03T22:24:03.428Z,100.00
2022-12-03T22:26:30.730Z,100.00
2022-12-03T22:28:58.104Z,100.00
2022-12-03T22:31:26.162Z,100.00
2022-12-03T22:33:53.583Z,100.00
2022-12-03T22:36:22.656Z,100.00
2022-12-03T22:38:51.328Z,100.00
2022-12-03T22:41:20.374Z,100.00
2022-12-03T22:43:49.083Z,100.00
2022-12-03T22:46:17.634Z,100.00
2022-12-03T22:48:46.864Z,100.00
2022-12-03T22:51:23.674Z,100.00
2022-12-03T22:53:55.651Z,100.00
2022-12-03T22:56:31.704Z,100.00
2022-12-03T22:58:59.425Z,100.00
2022-12-03T23:01:30.188Z,100.00
2022-12-03T23:03:57.739Z,100.00
2022-12-03T23:06:25.424Z,100.00
2022-12-03T23:08:53.203Z,100.00
2022-12-03T23:11:23.001Z,100.00
2022-12-03T23:13:50.756Z,100.00
2022-12-03T23:16:22.537Z,100.00
2022-12-03T23:18:52.973Z,100.00
2022-12-03T23:21:29.004Z,100.00
2022-12-03T23:24:00.455Z,100.00
2022-12-03T23:26:27.773Z,100.00
2022-12-03T23:28:55.295Z,100.00
2022-12-03T23:31:28.290Z,100.00
2022-12-03T23:33:57.358Z,100.00
2022-12-03T23:36:26.389Z,100.00
2022-12-03T23:38:54.256Z,100.00
2022-12-03T23:41:23.952Z,100.00
2022-12-03T23:43:51.950Z,100.00
2022-12-03T23:46:23.950Z,100.00
2022-12-03T23:48:52.137Z,100.00
2022-12-03T23:51:22.804Z,100.00
2022-12-03T23:53:50.588Z,100.00
2022-12-03T23:56:22.103Z,100.00
2022-12-03T23:58:49.669Z,100.00
